Time;durP1;ratioP1;P1;durP2;ratioP2;P2;SDS_P1;SDS_P2;PMS_P1;PMS_P2;Temp;Humidity;BMP_temperature;BMP_pressure;BME280_temperature;BME280_humidity;BME280_pressure;Samples;Min_cycle;Max_cycle;Signal;HPM_P1;HPM_P2
2023/08/06 00:02:11;;;;;;;;;22.20;21.60;;;;;17.42;75.86;98187.16;5079217;28;8834;-79
2023/08/06 00:04:40;;;;;;;;;25.60;25.20;;;;;17.47;76.16;98179.72;5078694;28;9039;-79
2023/08/06 00:07:09;;;;;;;;;20.40;19.60;;;;;17.71;75.29;98179.78;5096750;28;8843;-80
2023/08/06 00:09:40;;;;;;;;;24.20;21.40;;;;;17.74;74.32;98180.41;5067377;28;8849;-81
2023/08/06 00:12:09;;;;;;;;;18.20;18.20;;;;;17.63;75.17;98187.44;5071391;28;8891;-82
2023/08/06 00:14:38;;;;;;;;;20.80;18.80;;;;;17.62;74.52;98186.59;5066187;28;9718;-81
2023/08/06 00:17:07;;;;;;;;;21.60;20.00;;;;;17.52;74.37;98173.13;5065805;28;8855;-82
2023/08/06 00:19:36;;;;;;;;;18.40;18.00;;;;;17.70;74.70;98167.44;5031236;28;8882;-82
2023/08/06 00:22:06;;;;;;;;;22.40;21.40;;;;;17.69;74.00;98161.28;4990976;28;8891;-82
2023/08/06 00:24:35;;;;;;;;;22.20;21.60;;;;;17.88;73.99;98147.50;5030902;28;8860;-82
2023/08/06 00:27:06;;;;;;;;;20.40;20.40;;;;;18.01;74.14;98141.28;5030711;28;9005;-83
2023/08/06 00:29:35;;;;;;;;;22.40;20.80;;;;;18.12;73.48;98134.22;5047545;28;8898;-82
2023/08/06 00:32:05;;;;;;;;;27.80;23.60;;;;;18.24;73.22;98129.78;5047079;28;8848;-82
2023/08/06 00:34:34;;;;;;;;;28.20;25.60;;;;;18.31;72.39;98122.22;5013724;28;8953;-82
2023/08/06 00:37:04;;;;;;;;;23.20;22.40;;;;;18.33;72.47;98109.63;5030867;28;8855;-82
2023/08/06 00:39:33;;;;;;;;;19.40;19.40;;;;;18.28;72.33;98103.81;5031611;28;8868;-82
2023/08/06 00:42:02;;;;;;;;;21.60;19.60;;;;;18.23;71.34;98100.66;5013486;28;8867;-81
2023/08/06 00:44:33;;;;;;;;;26.40;23.40;;;;;18.29;71.70;98093.06;5030515;28;8886;-82
2023/08/06 00:47:03;;;;;;;;;17.80;17.40;;;;;18.25;70.90;98077.44;5063445;28;8859;-82
2023/08/06 00:49:32;;;;;;;;;19.20;18.20;;;;;18.16;70.84;98076.34;5047596;28;8924;-82
2023/08/06 00:52:03;;;;;;;;;19.60;19.60;;;;;18.12;70.77;98072.22;5031680;28;8879;-81
2023/08/06 00:54:33;;;;;;;;;26.80;22.20;;;;;18.17;71.28;98070.03;5072631;28;8946;-80
2023/08/06 00:57:04;;;;;;;;;22.00;21.60;;;;;18.15;71.32;98066.66;5016455;28;8857;-81
2023/08/06 00:59:35;;;;;;;;;20.60;20.20;;;;;18.16;71.71;98079.00;5046483;28;9002;-81
2023/08/06 01:02:06;;;;;;;;;20.40;19.60;;;;;18.17;71.47;98083.34;5063223;28;8944;-82
2023/08/06 01:04:35;;;;;;;;;24.20;22.60;;;;;18.22;71.52;98094.47;5047305;28;8949;-82
2023/08/06 01:07:30;;;;;;;;;43.60;36.80;;;;;18.49;72.23;98098.66;5082140;28;8853;-81
2023/08/06 01:10:17;;;;;;;;;23.40;22.80;;;;;18.02;70.29;98089.78;5066566;28;8898;-82
2023/08/06 01:12:53;;;;;;;;;22.60;21.60;;;;;17.83;71.12;98088.50;5104724;27;8902;-81
2023/08/06 01:15:29;;;;;;;;;21.20;21.00;;;;;17.93;71.70;98091.31;5074330;28;8856;-81
2023/08/06 01:17:58;;;;;;;;;18.80;18.60;;;;;17.92;72.23;98085.16;5090380;28;8887;-82
2023/08/06 01:20:30;;;;;;;;;20.80;20.80;;;;;18.12;72.77;98082.84;5089830;28;9967;-81
2023/08/06 01:22:59;;;;;;;;;19.00;17.60;;;;;18.11;71.84;98076.66;5084830;28;8880;-81
2023/08/06 01:25:34;;;;;;;;;14.00;14.00;;;;;18.16;71.85;98077.19;5103474;28;8989;-80
2023/08/06 01:28:12;;;;;;;;;16.80;15.40;;;;;18.23;71.84;98074.03;5070677;28;8850;-81
2023/08/06 01:30:43;;;;;;;;;16.80;15.20;;;;;18.04;71.05;98070.13;5101924;28;8854;-81
2023/08/06 01:33:22;;;;;;;;;15.00;13.80;;;;;18.15;71.25;98071.97;5086724;28;8870;-82
2023/08/06 01:35:55;;;;;;;;;14.60;14.20;;;;;18.00;71.61;98065.13;5082817;28;8849;-81
2023/08/06 01:38:25;;;;;;;;;13.80;13.40;;;;;17.98;71.22;98059.91;5049349;28;8888;-82
2023/08/06 01:40:53;;;;;;;;;13.60;13.60;;;;;18.02;71.52;98060.53;5050397;28;8931;-82
2023/08/06 01:43:22;;;;;;;;;14.40;12.40;;;;;18.04;71.41;98054.16;5082734;28;8849;-83
2023/08/06 01:45:51;;;;;;;;;15.80;13.80;;;;;18.04;71.00;98061.31;5085859;28;8997;-80
2023/08/06 01:48:21;;;;;;;;;12.40;11.60;;;;;18.10;70.71;98059.03;5069973;28;8873;-80
2023/08/06 01:50:49;;;;;;;;;10.00;10.00;;;;;17.95;70.39;98049.53;5066373;28;8861;-83
2023/08/06 01:53:21;;;;;;;;;10.00;9.00;;;;;18.02;70.60;98044.59;5050338;28;8875;-81
2023/08/06 01:55:50;;;;;;;;;10.00;10.00;;;;;17.77;70.56;98036.63;5048886;28;8945;-82
2023/08/06 01:58:19;;;;;;;;;9.60;9.60;;;;;17.74;71.49;98033.34;5065550;28;8841;-81
2023/08/06 02:00:48;;;;;;;;;10.00;10.00;;;;;17.72;71.45;98028.19;5082921;28;8865;-80
2023/08/06 02:03:17;;;;;;;;;12.80;12.00;;;;;17.78;71.35;98024.22;5068278;28;10002;-80
2023/08/06 02:05:46;;;;;;;;;12.60;12.20;;;;;17.68;71.05;98032.00;5068301;28;8862;-81
2023/08/06 02:08:15;;;;;;;;;11.40;9.80;;;;;17.70;71.21;98023.94;5085603;28;8838;-79
2023/08/06 02:10:46;;;;;;;;;12.20;10.80;;;;;17.72;70.78;98028.19;5084981;28;8873;-80
2023/08/06 02:13:15;;;;;;;;;12.80;12.40;;;;;17.70;70.60;98029.25;5085740;28;8870;-82
2023/08/06 02:15:44;;;;;;;;;11.20;11.20;;;;;17.70;71.25;98031.91;5085557;28;9640;-80
2023/08/06 02:18:14;;;;;;;;;12.60;11.60;;;;;17.71;70.80;98020.31;5067636;28;8854;-81
2023/08/06 02:20:43;;;;;;;;;12.60;12.60;;;;;17.78;69.69;98021.56;5067846;28;8858;-81
2023/08/06 02:23:12;;;;;;;;;8.80;8.00;;;;;17.82;70.65;98027.50;5069829;28;8858;-81
2023/08/06 02:25:41;;;;;;;;;13.00;13.00;;;;;17.83;70.37;98024.69;5069096;28;8869;-82
2023/08/06 02:28:12;;;;;;;;;13.60;12.80;;;;;18.00;71.11;98017.28;5068178;28;8858;-81
2023/08/06 02:30:50;;;;;;;;;12.20;11.00;;;;;18.01;69.32;98005.69;5084892;28;8866;-81
2023/08/06 02:33:19;;;;;;;;;13.20;11.80;;;;;18.13;69.82;98000.28;5068718;28;8858;-80
2023/08/06 02:35:48;;;;;;;;;14.60;13.40;;;;;18.21;70.00;98007.66;5064895;28;8845;-80
2023/08/06 02:38:18;;;;;;;;;10.00;10.00;;;;;18.30;69.36;98020.25;5064919;28;8841;-79
2023/08/06 02:40:47;;;;;;;;;8.80;8.60;;;;;18.27;69.27;98023.19;5036865;28;8837;-81
2023/08/06 02:43:17;;;;;;;;;16.60;14.80;;;;;18.35;70.02;98014.59;5074438;28;8842;-81
2023/08/06 02:45:46;;;;;;;;;11.20;10.20;;;;;18.37;69.25;98019.81;5113060;28;8886;-80
2023/08/06 02:48:18;;;;;;;;;13.80;12.20;;;;;18.34;69.04;98016.38;5076218;28;8932;-80
2023/08/06 02:50:46;;;;;;;;;13.80;13.80;;;;;18.28;68.48;98010.72;5066100;28;8860;-80
2023/08/06 02:53:16;;;;;;;;;8.00;8.00;;;;;18.28;68.72;98018.69;5082286;28;8889;-81
2023/08/06 02:55:48;;;;;;;;;8.20;8.20;;;;;18.26;68.52;98010.00;5081635;28;8869;-81
2023/08/06 02:58:22;;;;;;;;;10.00;8.80;;;;;18.22;69.17;98012.03;5082036;28;8879;-81
2023/08/06 03:01:05;;;;;;;;;9.80;8.80;;;;;18.09;69.01;98008.63;5084648;28;8925;-81
2023/08/06 03:03:41;;;;;;;;;8.40;7.80;;;;;18.00;69.16;98011.94;5067885;28;8955;-80
2023/08/06 03:06:11;;;;;;;;;9.80;9.00;;;;;17.97;68.99;98016.53;5100260;28;8985;-80
2023/08/06 03:08:48;;;;;;;;;9.80;7.20;;;;;18.01;69.56;98024.28;5067863;28;8874;-79
2023/08/06 03:11:17;;;;;;;;;4.00;3.00;;;;;17.98;69.35;98012.91;5068895;28;8977;-81
2023/08/06 03:13:48;;;;;;;;;6.00;6.00;;;;;17.96;68.67;98020.16;5069493;28;8846;-80
2023/08/06 03:16:18;;;;;;;;;6.00;5.00;;;;;18.01;68.73;98016.31;5068922;28;8854;-79
2023/08/06 03:18:47;;;;;;;;;5.80;5.00;;;;;18.01;68.74;98026.94;5084429;28;8893;-81
2023/08/06 03:21:16;;;;;;;;;7.00;7.00;;;;;17.86;68.25;98021.81;5068014;28;8862;-80
2023/08/06 03:23:49;;;;;;;;;9.00;8.80;;;;;17.58;69.33;98023.88;5049800;28;8866;-80
2023/08/06 03:26:21;;;;;;;;;8.20;8.00;;;;;17.65;68.59;98018.13;5067725;28;8935;-80
2023/08/06 03:28:52;;;;;;;;;6.20;6.20;;;;;17.70;69.18;98011.50;5086430;28;8866;-80
2023/08/06 03:31:21;;;;;;;;;6.20;6.20;;;;;17.72;69.48;98011.38;5053335;28;9012;-81
2023/08/06 03:33:50;;;;;;;;;6.80;6.80;;;;;17.72;68.87;98014.03;5086387;28;9019;-79
2023/08/06 03:36:24;;;;;;;;;6.40;6.00;;;;;17.57;69.00;98005.38;5055420;28;8845;-79
2023/08/06 03:38:54;;;;;;;;;7.00;6.80;;;;;17.55;69.13;98010.84;5084746;28;8874;-81
2023/08/06 03:41:23;;;;;;;;;7.00;7.00;;;;;17.46;69.31;98026.63;5087106;28;8838;-82
2023/08/06 03:43:53;;;;;;;;;4.60;4.60;;;;;17.54;70.21;98017.09;5058613;28;8884;-80
2023/08/06 03:46:26;;;;;;;;;7.60;7.60;;;;;17.43;69.72;98029.50;5066381;28;8884;-79
2023/08/06 03:48:56;;;;;;;;;6.60;6.60;;;;;17.58;69.76;98029.19;5069149;28;8906;-81
2023/08/06 03:51:26;;;;;;;;;6.80;6.40;;;;;17.64;69.72;98035.88;5012752;28;8849;-80
2023/08/06 03:53:57;;;;;;;;;7.00;6.20;;;;;17.62;69.16;98039.59;5019464;28;8841;-82
2023/08/06 03:56:26;;;;;;;;;5.80;5.80;;;;;17.76;69.12;98026.16;5049938;28;8885;-80
2023/08/06 03:58:56;;;;;;;;;5.80;5.80;;;;;17.85;69.70;98019.28;5033213;28;8907;-81
2023/08/06 04:01:25;;;;;;;;;49.00;41.25;;;;;17.82;68.95;98016.88;5017031;28;8877;-80
2023/08/06 04:03:55;;;;;;;;;12.40;10.60;;;;;18.00;69.23;98017.28;5049855;28;8846;-80
2023/08/06 04:06:27;;;;;;;;;7.00;7.00;;;;;17.82;68.49;98012.38;5049112;28;8834;-80
2023/08/06 04:08:55;;;;;;;;;8.60;8.60;;;;;17.96;68.15;98019.31;5037687;28;8939;-81
2023/08/06 04:11:24;;;;;;;;;8.00;7.40;;;;;18.11;69.25;98020.00;5088051;28;8830;-81
2023/08/06 04:13:54;;;;;;;;;6.20;6.20;;;;;17.56;68.16;98014.34;5055098;28;8889;-80
2023/08/06 04:16:27;;;;;;;;;6.80;6.20;;;;;17.43;69.47;98027.69;5054855;28;8885;-79
2023/08/06 04:18:56;;;;;;;;;8.40;8.20;;;;;17.75;69.37;98019.13;5087658;28;8850;-79
2023/08/06 04:21:25;;;;;;;;;6.40;6.40;;;;;17.70;68.29;98030.13;5087331;28;9016;-80
2023/08/06 04:23:55;;;;;;;;;6.60;6.60;;;;;17.33;70.03;98024.84;5089420;28;8919;-79
2023/08/06 04:26:23;;;;;;;;;5.00;5.00;;;;;17.24;70.32;98022.00;5089761;28;8834;-80
2023/08/06 04:28:52;;;;;;;;;10.20;9.20;;;;;17.25;71.15;98010.38;5038115;28;8873;-79
2023/08/06 04:31:23;;;;;;;;;6.40;6.00;;;;;17.39;70.56;98018.25;5052952;28;8959;-80
2023/08/06 04:33:54;;;;;;;;;5.80;5.80;;;;;17.60;70.84;98009.66;5070145;28;8888;-79
2023/08/06 04:36:22;;;;;;;;;6.00;6.00;;;;;17.83;70.73;98010.56;5053984;28;8865;-79
2023/08/06 04:38:52;;;;;;;;;5.60;5.60;;;;;18.09;70.84;98005.97;5053690;28;8923;-81
2023/08/06 04:41:20;;;;;;;;;7.20;5.80;;;;;18.31;69.93;98008.66;5103174;28;8960;-81
2023/08/06 04:43:50;;;;;;;;;5.20;5.20;;;;;18.55;69.67;98005.91;5077285;28;8927;-80
2023/08/06 04:46:18;;;;;;;;;6.00;5.00;;;;;18.67;68.97;98003.25;5069189;28;8865;-80
2023/08/06 04:48:47;;;;;;;;;14.00;13.00;;;;;18.44;67.94;98007.69;5056969;28;8879;-80
2023/08/06 04:51:17;;;;;;;;;6.00;6.00;;;;;18.53;67.33;98022.94;5053596;28;9583;-81
2023/08/06 04:53:46;;;;;;;;;7.20;7.20;;;;;18.26;68.21;98023.28;5036746;28;8845;-81
2023/08/06 04:56:15;;;;;;;;;7.80;7.80;;;;;18.48;67.63;98022.47;5053096;28;8871;-80
2023/08/06 04:58:44;;;;;;;;;6.20;4.80;;;;;18.37;68.73;98020.66;5064972;28;8873;-82
2023/08/06 05:01:13;;;;;;;;;20.80;17.40;;;;;18.42;68.48;98020.28;5065484;28;8844;-80
2023/08/06 05:03:42;;;;;;;;;25.80;24.40;;;;;18.53;68.06;98021.16;5068603;28;8870;-80
2023/08/06 05:06:11;;;;;;;;;5.80;4.80;;;;;18.70;68.18;98013.63;5085415;28;9615;-81
2023/08/06 05:08:42;;;;;;;;;6.60;6.60;;;;;18.78;67.89;98008.56;5068843;28;8856;-80
2023/08/06 05:11:10;;;;;;;;;4.40;4.40;;;;;18.90;67.34;98014.75;5052129;28;8945;-80
2023/08/06 05:13:40;;;;;;;;;7.80;7.40;;;;;19.00;67.08;98018.34;5022804;28;8860;-81
2023/08/06 05:16:09;;;;;;;;;5.40;4.60;;;;;18.98;66.80;98016.81;5033164;28;8845;-80
2023/08/06 05:18:39;;;;;;;;;6.20;6.20;;;;;19.02;66.76;98024.41;5068550;28;8953;-79
2023/08/06 05:21:07;;;;;;;;;8.00;7.40;;;;;19.10;66.63;98029.97;5018748;28;8865;-79
2023/08/06 05:23:36;;;;;;;;;7.20;6.00;;;;;19.24;67.33;98028.03;4996784;28;9581;-78
2023/08/06 05:26:07;;;;;;;;;8.00;8.00;;;;;19.30;67.10;98038.16;4998849;28;8856;-79
2023/08/06 05:28:36;;;;;;;;;7.20;7.20;;;;;18.84;65.92;98037.38;5014701;28;8829;-79
2023/08/06 05:31:05;;;;;;;;;7.40;7.40;;;;;19.10;68.21;98037.97;4994567;28;8872;-80
2023/08/06 05:33:34;;;;;;;;;8.00;8.00;;;;;19.23;66.98;98036.97;4991456;28;8995;-80
2023/08/06 05:36:03;;;;;;;;;12.00;11.00;;;;;19.00;67.60;98046.81;5008706;28;8859;-80
2023/08/06 05:38:32;;;;;;;;;10.80;10.00;;;;;19.17;67.33;98051.63;4992511;28;8946;-79
2023/08/06 05:41:00;;;;;;;;;11.60;10.60;;;;;19.10;67.33;98058.41;5008718;28;8887;-81
2023/08/06 05:43:31;;;;;;;;;14.20;12.40;;;;;18.88;67.19;98054.81;4959176;28;9674;-79
2023/08/06 05:46:00;;;;;;;;;13.60;12.00;;;;;18.38;69.31;98053.41;5028385;28;8877;-78
2023/08/06 05:48:29;;;;;;;;;14.60;14.40;;;;;18.27;70.96;98059.53;5011752;28;8861;-80
2023/08/06 05:50:58;;;;;;;;;15.60;15.60;;;;;18.68;70.81;98060.81;4994522;28;8857;-81
2023/08/06 05:53:27;;;;;;;;;18.40;17.80;;;;;18.67;69.82;98059.97;5011508;28;8900;-80
2023/08/06 05:55:56;;;;;;;;;22.00;20.80;;;;;18.84;68.13;98057.84;5027756;28;8838;-80
2023/08/06 05:58:29;;;;;;;;;16.20;16.20;;;;;18.54;70.04;98067.22;4995815;28;8818;-81
2023/08/06 06:00:59;;;;;;;;;18.80;18.80;;;;;18.89;70.23;98069.84;5046695;28;8967;-81
2023/08/06 06:03:28;;;;;;;;;23.80;22.80;;;;;18.78;70.06;98069.78;5070357;28;8869;-79
2023/08/06 06:05:57;;;;;;;;;20.80;20.20;;;;;19.22;68.96;98076.09;5052309;28;8862;-79
2023/08/06 06:08:26;;;;;;;;;21.20;20.40;;;;;19.41;69.04;98078.13;5073096;28;8865;-80
2023/08/06 06:10:55;;;;;;;;;19.00;17.60;;;;;19.67;68.68;98068.03;5060387;28;8865;-81
2023/08/06 06:13:24;;;;;;;;;24.20;21.20;;;;;19.46;66.55;98070.59;5065521;28;8869;-80
2023/08/06 06:15:55;;;;;;;;;22.80;21.00;;;;;18.67;70.19;98077.78;5032215;28;8961;-80
2023/08/06 06:18:26;;;;;;;;;26.40;24.20;;;;;18.96;69.89;98082.66;5052529;28;8934;-80
2023/08/06 06:20:55;;;;;;;;;23.00;22.80;;;;;19.06;69.72;98084.44;5070440;28;8842;-80
2023/08/06 06:23:24;;;;;;;;;25.80;23.20;;;;;19.40;69.27;98092.41;5086167;28;8850;-80
2023/08/06 06:25:53;;;;;;;;;25.60;24.20;;;;;19.32;67.96;98100.16;5057424;28;8872;-79
2023/08/06 06:28:22;;;;;;;;;27.00;25.80;;;;;19.20;68.24;98096.69;5081949;28;8857;-81
2023/08/06 06:30:53;;;;;;;;;29.40;27.60;;;;;19.19;67.78;98096.78;5051027;28;8964;-81
2023/08/06 06:33:22;;;;;;;;;24.20;21.20;;;;;18.38;71.35;98098.63;5017807;28;8845;-81
2023/08/06 06:35:52;;;;;;;;;24.20;23.60;;;;;18.43;72.07;98101.78;5068723;28;8866;-80
2023/08/06 06:38:21;;;;;;;;;24.00;20.80;;;;;18.90;70.44;98097.28;5047291;28;8858;-80
2023/08/06 06:40:55;;;;;;;;;23.40;23.40;;;;;18.96;70.05;98088.81;5047128;28;9670;-81
2023/08/06 06:43:24;;;;;;;;;22.60;20.20;;;;;19.01;67.99;98091.13;5028497;28;8841;-81
2023/08/06 06:45:58;;;;;;;;;25.80;24.20;;;;;19.08;68.84;98090.53;5030726;28;8862;-79
2023/08/06 06:48:28;;;;;;;;;21.60;20.00;;;;;18.34;70.23;98093.53;4981549;28;8878;-81
2023/08/06 06:50:58;;;;;;;;;19.20;18.60;;;;;18.00;72.91;98102.34;5030556;28;8858;-81
2023/08/06 06:53:28;;;;;;;;;22.20;21.80;;;;;17.92;74.09;98098.44;5046881;28;8858;-82
2023/08/06 06:55:56;;;;;;;;;24.00;23.60;;;;;17.90;74.80;98094.22;5046979;28;8855;-80
2023/08/06 06:58:26;;;;;;;;;23.20;21.20;;;;;18.14;72.85;98097.72;5013189;28;8853;-80
2023/08/06 07:00:55;;;;;;;;;27.00;23.00;;;;;18.29;73.02;98105.50;5013538;28;8857;-80
2023/08/06 07:03:24;;;;;;;;;21.60;20.60;;;;;18.14;73.22;98105.69;5029980;28;8858;-80
2023/08/06 07:05:53;;;;;;;;;19.20;19.20;;;;;18.22;72.87;98102.47;5062590;28;8908;-82
2023/08/06 07:08:23;;;;;;;;;21.60;20.60;;;;;18.79;71.71;98107.94;5046393;28;9588;-79
2023/08/06 07:11:00;;;;;;;;;19.80;19.00;;;;;19.02;69.57;98114.94;5069748;28;8937;-79
2023/08/06 07:13:30;;;;;;;;;18.40;17.00;;;;;19.18;68.25;98111.06;5069516;28;8826;-79
2023/08/06 07:15:59;;;;;;;;;15.40;15.40;;;;;19.31;67.47;98119.81;5045838;28;8876;-81
2023/08/06 07:18:28;;;;;;;;;20.00;19.60;;;;;19.21;67.76;98116.16;5049116;28;8864;-80
2023/08/06 07:20:57;;;;;;;;;21.40;19.80;;;;;18.80;69.82;98120.25;5046840;28;8864;-80
2023/08/06 07:23:28;;;;;;;;;19.60;19.60;;;;;18.86;70.32;98117.16;5058097;28;8864;-79
2023/08/06 07:25:56;;;;;;;;;18.80;18.00;;;;;19.44;69.45;98115.19;5035059;28;8869;-79
2023/08/06 07:28:25;;;;;;;;;17.60;16.60;;;;;19.50;67.54;98120.00;5052464;28;8952;-80
2023/08/06 07:30:54;;;;;;;;;20.60;16.60;;;;;19.39;67.65;98117.38;5035722;28;8861;-80
2023/08/06 07:33:23;;;;;;;;;19.40;19.40;;;;;19.84;67.25;98122.63;5011450;28;8987;-79
2023/08/06 07:35:52;;;;;;;;;17.60;15.60;;;;;19.19;66.94;98126.94;4978300;28;10265;-81
2023/08/06 07:38:22;;;;;;;;;17.20;17.20;;;;;19.19;67.87;98126.09;5014024;28;8855;-79
2023/08/06 07:40:52;;;;;;;;;21.20;20.80;;;;;19.75;65.91;98128.72;4993724;28;8858;-81
2023/08/06 07:43:21;;;;;;;;;14.80;14.80;;;;;20.08;64.39;98125.09;4993461;28;8917;-81
2023/08/06 07:45:50;;;;;;;;;19.00;18.20;;;;;19.91;65.46;98125.63;4993692;28;8874;-79
2023/08/06 07:48:19;;;;;;;;;20.20;19.00;;;;;19.97;66.28;98129.59;4991310;28;8866;-80
2023/08/06 07:50:51;;;;;;;;;17.00;17.00;;;;;20.28;63.95;98125.28;5006979;28;8983;-79
2023/08/06 07:53:21;;;;;;;;;17.60;16.80;;;;;20.54;62.20;98130.22;4993012;28;8948;-78
2023/08/06 07:55:52;;;;;;;;;12.60;12.00;;;;;20.91;60.97;98122.56;5010086;28;8993;-80
2023/08/06 07:58:22;;;;;;;;;14.40;14.20;;;;;20.14;62.37;98128.19;4993334;28;8858;-80
2023/08/06 08:00:51;;;;;;;;;10.80;10.80;;;;;20.00;62.42;98121.34;4990481;28;8889;-79
2023/08/06 08:03:22;;;;;;;;;12.80;12.20;;;;;19.62;63.18;98133.34;4990532;28;8874;-79
2023/08/06 08:05:57;;;;;;;;;11.00;11.00;;;;;19.75;64.15;98136.72;5031094;28;8869;-81
2023/08/06 08:08:27;;;;;;;;;13.60;12.80;;;;;19.73;62.83;98130.66;5015473;28;8866;-81
2023/08/06 08:10:58;;;;;;;;;11.80;11.80;;;;;19.52;63.58;98126.09;5016454;28;8945;-80
2023/08/06 08:13:27;;;;;;;;;10.00;9.80;;;;;20.10;62.25;98125.81;5033182;28;8897;-80
2023/08/06 08:15:59;;;;;;;;;10.40;10.40;;;;;20.28;61.96;98127.94;5047113;28;8966;-80
2023/08/06 08:18:29;;;;;;;;;11.60;11.20;;;;;20.55;61.10;98130.09;4998046;28;8840;-81
2023/08/06 08:20:58;;;;;;;;;10.80;10.80;;;;;19.92;63.93;98140.66;5046901;28;8883;-80
2023/08/06 08:23:28;;;;;;;;;10.80;9.60;;;;;20.52;62.10;98132.16;4994404;28;8841;-79
2023/08/06 08:25:58;;;;;;;;;9.80;9.80;;;;;20.49;61.72;98146.63;5033245;28;9025;-80
2023/08/06 08:28:27;;;;;;;;;10.00;9.00;;;;;20.49;60.25;98139.47;5033098;28;8841;-80
2023/08/06 08:30:56;;;;;;;;;8.00;8.00;;;;;20.83;60.65;98141.09;5050288;28;8876;-80
2023/08/06 08:33:25;;;;;;;;;6.80;6.80;;;;;20.73;59.57;98140.16;5071055;28;8926;-80
2023/08/06 08:35:53;;;;;;;;;8.00;8.00;;;;;21.29;59.73;98145.13;5050440;28;8930;-80
2023/08/06 08:38:23;;;;;;;;;8.20;7.00;;;;;20.68;58.99;98141.41;5066784;28;8864;-81
2023/08/06 08:40:54;;;;;;;;;7.20;7.20;;;;;21.10;59.97;98145.88;5061105;28;8842;-79
2023/08/06 08:43:25;;;;;;;;;5.20;5.20;;;;;21.23;57.67;98151.84;5070466;28;9696;-80
2023/08/06 08:45:58;;;;;;;;;6.00;6.00;;;;;21.22;57.50;98152.00;5071129;28;8987;-80
2023/08/06 08:48:28;;;;;;;;;5.80;5.80;;;;;21.12;58.66;98151.94;5071127;28;8916;-80
2023/08/06 08:50:57;;;;;;;;;5.60;5.00;;;;;20.67;57.78;98146.88;5104600;28;8838;-79
2023/08/06 08:53:28;;;;;;;;;4.80;4.00;;;;;21.11;57.77;98144.09;5070738;28;8932;-80
2023/08/06 08:55:58;;;;;;;;;6.00;6.00;;;;;20.50;58.29;98148.34;5065799;28;8852;-79
2023/08/06 08:58:28;;;;;;;;;3.60;3.60;;;;;20.50;57.46;98148.34;5066936;28;8963;-79
2023/08/06 09:01:01;;;;;;;;;5.00;5.00;;;;;20.99;57.60;98141.50;5084110;28;9630;-79
2023/08/06 09:03:31;;;;;;;;;6.00;5.00;;;;;21.39;55.47;98143.34;5038828;28;8836;-79
2023/08/06 09:06:03;;;;;;;;;3.00;3.00;;;;;21.55;55.05;98141.97;5083638;28;8853;-79
2023/08/06 09:08:41;;;;;;;;;6.00;4.00;;;;;21.02;54.84;98135.03;5052169;28;9258;-79
2023/08/06 09:11:11;;;;;;;;;6.00;5.00;;;;;20.92;56.05;98140.34;5070504;28;9626;-81
2023/08/06 09:13:42;;;;;;;;;5.60;4.60;;;;;21.10;56.14;98147.72;5056864;28;8850;-81
2023/08/06 09:16:11;;;;;;;;;5.00;5.00;;;;;21.06;55.95;98149.81;5086319;28;8876;-79
2023/08/06 09:18:41;;;;;;;;;4.40;4.40;;;;;21.06;55.73;98139.97;5069717;28;8850;-83
2023/08/06 09:21:16;;;;;;;;;5.00;5.00;;;;;21.46;57.14;98130.25;5086407;28;8854;-79
2023/08/06 09:23:45;;;;;;;;;4.20;4.20;;;;;21.52;54.41;98137.75;5069827;28;8870;-79
2023/08/06 09:26:14;;;;;;;;;7.00;7.00;;;;;21.67;53.41;98140.91;5069495;28;8889;-79
2023/08/06 09:28:46;;;;;;;;;5.00;5.00;;;;;20.77;55.40;98146.97;5069234;28;8850;-79
2023/08/06 09:31:14;;;;;;;;;4.00;4.00;;;;;19.86;58.05;98134.00;5069713;28;8865;-79
2023/08/06 09:33:44;;;;;;;;;3.80;3.80;;;;;20.20;57.67;98135.69;5070273;28;8947;-79
2023/08/06 09:36:14;;;;;;;;;5.80;5.00;;;;;20.42;57.33;98121.44;5070990;28;8857;-80
2023/08/06 09:38:43;;;;;;;;;8.20;5.20;;;;;20.47;57.94;98130.75;5047965;28;8862;-79
2023/08/06 09:41:11;;;;;;;;;5.00;5.00;;;;;20.83;56.50;98130.41;5032815;28;9719;-79
2023/08/06 09:43:42;;;;;;;;;5.40;5.40;;;;;21.39;54.86;98132.66;5032112;28;8837;-80
2023/08/06 09:46:16;;;;;;;;;5.00;5.00;;;;;20.74;56.45;98134.69;4998339;28;9036;-80
2023/08/06 09:48:48;;;;;;;;;5.20;5.20;;;;;20.28;58.39;98128.78;5015443;28;8839;-80
2023/08/06 09:51:18;;;;;;;;;5.60;5.60;;;;;20.78;58.29;98128.13;5031462;28;8997;-79
2023/08/06 09:53:50;;;;;;;;;2.00;2.00;;;;;21.00;54.73;98119.13;4999044;28;9623;-81
2023/08/06 09:56:20;;;;;;;;;4.80;4.80;;;;;21.40;53.13;98118.28;4994645;28;8969;-83
2023/08/06 09:58:50;;;;;;;;;4.20;4.20;;;;;21.29;54.24;98112.22;4992824;28;8866;-80
2023/08/06 10:01:21;;;;;;;;;4.00;4.00;;;;;21.08;53.48;98115.78;4975397;28;8870;-81
2023/08/06 10:03:53;;;;;;;;;4.00;4.00;;;;;21.70;52.76;98110.38;5006798;28;8957;-80
2023/08/06 10:06:22;;;;;;;;;4.20;4.20;;;;;22.01;51.13;98108.41;4959314;28;8848;-79
2023/08/06 10:08:51;;;;;;;;;4.00;4.00;;;;;21.02;53.01;98119.84;4959285;28;9007;-82
2023/08/06 10:11:24;;;;;;;;;4.00;4.00;;;;;20.46;55.31;98109.50;5007602;28;8858;-80
2023/08/06 10:13:59;;;;;;;;;4.00;4.00;;;;;20.71;55.39;98118.97;4985083;28;8871;-79
2023/08/06 10:16:30;;;;;;;;;4.80;4.80;;;;;20.83;55.23;98104.53;4983842;28;9728;-78
2023/08/06 10:18:59;;;;;;;;;4.00;4.00;;;;;21.42;55.65;98104.78;5061803;28;8868;-79
2023/08/06 10:21:30;;;;;;;;;6.20;3.80;;;;;21.93;53.39;98114.47;5049910;28;8879;-79
2023/08/06 10:24:01;;;;;;;;;4.00;4.00;;;;;21.90;50.18;98111.22;5065301;28;8857;-78
2023/08/06 10:26:31;;;;;;;;;5.00;4.40;;;;;22.14;48.21;98102.78;5065333;28;8880;-80
2023/08/06 10:29:00;;;;;;;;;5.40;5.40;;;;;22.11;47.76;98106.59;5048587;28;8874;-79
2023/08/06 10:32:00;;;;;;;;;6.80;6.80;;;;;22.74;49.97;98105.28;5078834;28;8875;-79
2023/08/06 10:34:54;;;;;;;;;3.00;3.00;;;;;21.33;50.76;98109.13;5009537;28;8880;-80
2023/08/06 10:37:23;;;;;;;;;2.80;2.80;;;;;21.14;50.07;98115.25;5050336;28;8851;-78
2023/08/06 10:39:53;;;;;;;;;3.00;3.00;;;;;20.93;50.75;98114.47;5035300;28;8936;-80
2023/08/06 10:42:29;;;;;;;;;2.60;2.60;;;;;20.51;51.38;98109.97;5030258;28;8940;-80
2023/08/06 10:45:16;;;;;;;;;3.00;3.00;;;;;21.36;51.47;98106.19;5047089;28;8839;-78
2023/08/06 10:47:46;;;;;;;;;3.00;3.00;;;;;21.51;48.09;98103.97;5031101;28;8868;-80
2023/08/06 10:50:17;;;;;;;;;3.40;2.00;;;;;21.15;48.57;98098.25;5032988;28;8867;-80
2023/08/06 10:52:47;;;;;;;;;3.40;3.40;;;;;21.84;47.83;98097.44;5042588;28;8860;-80
2023/08/06 10:55:24;;;;;;;;;3.20;3.20;;;;;21.97;46.84;98099.00;5051322;28;8866;-80
2023/08/06 10:57:54;;;;;;;;;3.00;3.00;;;;;22.32;46.05;98105.66;5013548;28;8887;-79
2023/08/06 11:00:24;;;;;;;;;3.00;3.00;;;;;21.96;47.98;98102.66;5030019;28;8856;-78
2023/08/06 11:02:54;;;;;;;;;3.40;3.40;;;;;22.44;46.83;98099.13;5030002;28;8862;-79
2023/08/06 11:05:24;;;;;;;;;4.00;3.00;;;;;23.00;47.18;98098.31;4986882;28;8870;-79
2023/08/06 11:07:53;;;;;;;;;6.00;6.00;;;;;23.04;45.13;98098.88;4978001;28;8882;-78
2023/08/06 11:10:22;;;;;;;;;3.40;3.40;;;;;22.77;45.18;98100.47;4987248;28;8862;-81
2023/08/06 11:12:52;;;;;;;;;4.00;4.00;;;;;23.15;44.52;98103.19;4994472;28;8864;-79
2023/08/06 11:15:22;;;;;;;;;4.20;4.20;;;;;22.76;45.33;98106.81;5026564;28;8848;-80
2023/08/06 11:17:51;;;;;;;;;3.00;3.00;;;;;23.33;45.62;98100.56;5023156;28;9014;-80
2023/08/06 11:20:22;;;;;;;;;5.00;5.00;;;;;23.09;44.33;98112.69;5006881;28;8892;-78
2023/08/06 11:22:51;;;;;;;;;4.20;4.20;;;;;22.88;44.83;98107.47;5006699;28;8874;-79
2023/08/06 11:25:22;;;;;;;;;6.20;6.20;;;;;23.65;46.10;98112.69;5012173;28;8862;-80
2023/08/06 11:27:51;;;;;;;;;8.00;7.60;;;;;23.20;44.86;98111.63;5026626;28;8883;-79
2023/08/06 11:30:20;;;;;;;;;7.60;7.60;;;;;22.73;46.59;98109.81;5026125;28;8894;-79
2023/08/06 11:32:49;;;;;;;;;12.80;12.80;;;;;22.95;45.94;98105.94;5042927;28;8851;-81
2023/08/06 11:35:19;;;;;;;;;6.00;6.00;;;;;23.18;45.90;98108.25;5026307;28;8851;-82
2023/08/06 11:37:49;;;;;;;;;5.80;5.80;;;;;23.63;46.14;98114.69;5026707;28;8948;-79
2023/08/06 11:40:19;;;;;;;;;5.00;5.00;;;;;23.63;44.80;98131.63;5041677;28;8851;-80
2023/08/06 11:42:48;;;;;;;;;6.00;6.00;;;;;22.91;46.72;98117.94;5028945;28;8961;-80
2023/08/06 11:45:17;;;;;;;;;6.80;5.80;;;;;22.92;46.48;98108.94;5067138;28;8850;-80
2023/08/06 11:47:52;;;;;;;;;5.00;5.00;;;;;22.75;46.53;98109.63;5069114;28;9143;-79
2023/08/06 11:50:24;;;;;;;;;5.60;5.60;;;;;22.29;47.19;98103.25;5068435;28;8881;-79